Pettisville, Ohio
Current Conditions -  °F | °C
As of 12:55 PM on Tuesday 21 Oct 2014 (Local Time) from KUSE Reporting Station
Overcast Overcast  
Wind Chill: 52°   Ceiling: 3300
Heat Index: 52°   Visibility: 10mi
Dew Point: 41°   Wind: 9mph
Humidity: 67%   Direction: 10°N
Pressure: 30.06"   Gusts: 24mph
Location:  41.53°N, 84.23°W
Report Text: KUSE 211655Z AUTO 01008G21KT 10SM FEW019 FEW027 OVC033 11/05 A3006 RMK AO2
Loading
Personal Weather Stations






























Interactive Weather Map
Tropical Storm Tracking
New forecast layout! Learn more

10-Day Weather Forecast

Advertisements
Track Severe Weather on mobile